createdAt,value
2018-03-19T00:02:26.363Z,78.40
2018-03-19T00:04:54.854Z,76.50
2018-03-19T00:07:23.104Z,77.50
2018-03-19T00:09:50.639Z,77.80
2018-03-19T00:12:19.016Z,78.30
2018-03-19T00:14:46.687Z,78.20
2018-03-19T00:17:14.991Z,77.90
2018-03-19T00:19:42.510Z,77.80
2018-03-19T00:22:10.959Z,79.10
2018-03-19T00:24:38.547Z,79.60
2018-03-19T00:27:06.100Z,79.60
2018-03-19T00:29:33.634Z,78.80
2018-03-19T00:32:01.182Z,77.40
2018-03-19T00:34:29.471Z,78.50
2018-03-19T00:36:57.054Z,78.40
2018-03-19T00:39:24.582Z,78.70
2018-03-19T00:41:52.858Z,76.70
2018-03-19T00:44:21.134Z,77.80
2018-03-19T00:46:48.672Z,77.00
2018-03-19T00:49:16.203Z,75.80
2018-03-19T00:51:43.711Z,78.40
2018-03-19T00:54:11.355Z,78.40
2018-03-19T00:56:38.867Z,80.20
2018-03-19T00:59:07.160Z,77.40
2018-03-19T01:01:35.453Z,77.60
2018-03-19T01:04:03.754Z,78.00
2018-03-19T01:06:31.266Z,77.90
2018-03-19T01:08:58.824Z,77.80
2018-03-19T01:11:26.343Z,75.40
2018-03-19T01:13:54.100Z,77.60
2018-03-19T01:16:22.395Z,78.00
2018-03-19T01:18:49.911Z,77.90
2018-03-19T01:21:17.448Z,75.60
2018-03-19T01:23:44.996Z,77.00
2018-03-19T01:26:12.512Z,76.50
2018-03-19T01:28:40.053Z,76.80
2018-03-19T01:31:07.611Z,76.20
2018-03-19T01:33:35.120Z,75.80
2018-03-19T01:36:03.415Z,76.80
2018-03-19T01:38:31.740Z,77.20
2018-03-19T01:40:59.272Z,77.10
2018-03-19T01:43:26.793Z,76.70
2018-03-19T01:45:54.352Z,74.20
2018-03-19T01:48:21.893Z,75.80
2018-03-19T01:50:49.431Z,75.00
2018-03-19T01:53:16.983Z,73.40
2018-03-19T01:55:45.320Z,76.70
2018-03-19T01:58:12.835Z,76.60
2018-03-19T02:00:41.130Z,76.80
2018-03-19T02:03:08.655Z,76.70
2018-03-19T02:05:36.945Z,75.60
2018-03-19T02:08:05.244Z,75.80
2018-03-19T02:10:33.553Z,75.00
2018-03-19T02:13:01.079Z,74.90
2018-03-19T02:15:29.461Z,74.90
2018-03-19T02:17:57.745Z,74.30
2018-03-19T02:20:26.027Z,76.90
2018-03-19T02:22:54.327Z,75.10
2018-03-19T02:25:21.850Z,75.00
2018-03-19T02:27:49.367Z,76.80
2018-03-19T02:30:16.900Z,74.70
2018-03-19T02:32:44.511Z,74.60
2018-03-19T02:35:12.091Z,76.60
2018-03-19T02:37:39.613Z,75.20
2018-03-19T02:40:07.150Z,76.90
2018-03-19T02:42:35.444Z,77.40
2018-03-19T02:45:03.758Z,77.20
2018-03-19T02:47:32.083Z,75.70
2018-03-19T02:49:59.593Z,75.70
2018-03-19T02:52:27.137Z,77.70
2018-03-19T02:54:55.431Z,74.60
2018-03-19T02:57:22.950Z,74.60
2018-03-19T02:59:50.572Z,76.80
2018-03-19T03:02:18.106Z,75.30
2018-03-19T03:04:46.404Z,75.60
2018-03-19T03:07:13.956Z,75.60
2018-03-19T03:09:42.237Z,73.80
2018-03-19T03:12:09.748Z,73.60
2018-03-19T03:14:37.307Z,76.10
2018-03-19T03:17:04.940Z,76.00
2018-03-19T03:19:32.470Z,75.80
2018-03-19T03:22:00.107Z,75.90
2018-03-19T03:24:27.662Z,75.10
2018-03-19T03:26:55.173Z,77.90
2018-03-19T03:29:22.762Z,77.30
2018-03-19T03:31:50.269Z,76.70
2018-03-19T03:34:17.812Z,77.60
2018-03-19T03:36:45.348Z,77.10
2018-03-19T03:39:13.627Z,75.80
2018-03-19T03:41:41.170Z,75.70
2018-03-19T03:44:08.700Z,75.00
2018-03-19T03:46:36.249Z,77.00
2018-03-19T03:49:03.759Z,77.50
2018-03-19T03:51:31.298Z,75.80
2018-03-19T03:53:58.817Z,74.50
2018-03-19T03:56:27.100Z,76.10
2018-03-19T03:58:55.426Z,76.70
2018-03-19T04:01:22.938Z,76.70
2018-03-19T04:03:51.223Z,76.30
2018-03-19T04:06:19.530Z,76.20
2018-03-19T04:08:47.072Z,76.10
2018-03-19T04:11:14.590Z,74.40
2018-03-19T04:13:42.146Z,76.70
2018-03-19T04:16:09.701Z,76.10
2018-03-19T04:18:37.285Z,75.10
2018-03-19T04:21:04.912Z,76.70
2018-03-19T04:23:32.448Z,76.40
2018-03-19T04:26:00.762Z,76.40
2018-03-19T04:28:28.318Z,76.40
2018-03-19T04:30:55.827Z,76.90
2018-03-19T04:33:23.435Z,77.40
2018-03-19T04:35:51.013Z,75.70
2018-03-19T04:38:18.540Z,73.90
2018-03-19T04:40:46.812Z,74.10
2018-03-19T04:43:14.343Z,74.00
2018-03-19T04:45:41.902Z,76.90
2018-03-19T04:48:09.419Z,75.40
2018-03-19T04:50:36.969Z,74.40
2018-03-19T04:53:04.505Z,76.30
2018-03-19T04:55:32.028Z,74.60
2018-03-19T04:58:00.330Z,74.20
2018-03-19T05:00:27.835Z,74.10
2018-03-19T05:02:55.348Z,76.40
2018-03-19T05:05:22.887Z,74.90
2018-03-19T05:07:51.190Z,76.20
2018-03-19T05:10:18.927Z,76.10
2018-03-19T05:12:47.306Z,75.60
2018-03-19T05:15:15.599Z,74.10
2018-03-19T05:17:43.111Z,74.00
2018-03-19T05:20:10.745Z,74.40
2018-03-19T05:22:39.050Z,74.60
2018-03-19T05:25:06.587Z,74.70
2018-03-19T05:27:34.931Z,72.50
2018-03-19T05:30:02.495Z,72.50
2018-03-19T05:32:31.523Z,75.70
2018-03-19T05:34:59.952Z,73.80
2018-03-19T05:37:27.472Z,73.80
2018-03-19T05:39:55.759Z,73.50
2018-03-19T05:42:24.084Z,74.60
2018-03-19T05:44:51.604Z,74.60
2018-03-19T05:47:19.907Z,75.60
2018-03-19T05:49:47.475Z,75.50
2018-03-19T05:52:14.982Z,74.30
2018-03-19T05:54:42.528Z,72.90
2018-03-19T05:57:10.058Z,75.20
2018-03-19T05:59:37.568Z,75.00
2018-03-19T06:02:05.205Z,74.80
2018-03-19T06:04:32.734Z,73.90
2018-03-19T06:07:01.043Z,73.70
2018-03-19T06:09:28.559Z,73.60
2018-03-19T06:11:56.086Z,73.70
2018-03-19T06:14:23.612Z,75.10
2018-03-19T06:16:51.908Z,74.30
2018-03-19T06:19:19.554Z,74.30
2018-03-19T06:21:47.942Z,75.60
2018-03-19T06:24:15.460Z,75.50
2018-03-19T06:26:42.986Z,75.10
2018-03-19T06:29:10.507Z,75.10
2018-03-19T06:31:38.047Z,74.80
2018-03-19T06:34:05.587Z,75.30
2018-03-19T06:36:33.122Z,75.20
2018-03-19T06:39:01.407Z,72.90
2018-03-19T06:41:29.749Z,74.60
2018-03-19T06:43:57.266Z,74.60
2018-03-19T06:46:24.816Z,73.90
2018-03-19T06:48:53.110Z,73.80
2018-03-19T06:51:21.389Z,73.50
2018-03-19T06:53:49.665Z,72.90
2018-03-19T06:56:17.976Z,74.30
2018-03-19T06:58:45.500Z,74.20
2018-03-19T07:01:13.784Z,75.40
2018-03-19T07:03:42.084Z,75.00
2018-03-19T07:06:09.655Z,74.90
2018-03-19T07:08:37.242Z,74.90
2018-03-19T07:11:04.774Z,74.00
2018-03-19T07:13:32.283Z,74.80
2018-03-19T07:15:59.817Z,73.10
2018-03-19T07:18:27.359Z,73.00
2018-03-19T07:20:55.673Z,73.10
2018-03-19T07:23:23.516Z,73.00
2018-03-19T07:25:51.832Z,72.00
2018-03-19T07:28:19.346Z,71.90
2018-03-19T07:30:47.700Z,75.60
2018-03-19T07:33:15.324Z,75.50
2018-03-19T07:35:42.926Z,74.80
2018-03-19T07:38:10.490Z,73.60
2018-03-19T07:40:38.038Z,74.70
2018-03-19T07:43:05.589Z,72.40
2018-03-19T07:45:33.124Z,74.00
2018-03-19T07:48:01.427Z,73.20
2018-03-19T07:50:29.650Z,73.10
2018-03-19T07:52:57.167Z,70.40
2018-03-19T07:55:25.178Z,69.40
2018-03-19T07:57:52.740Z,70.40
2018-03-19T08:00:20.262Z,70.80
2018-03-19T08:02:48.591Z,72.60
2018-03-19T08:05:16.111Z,72.50
2018-03-19T08:07:44.411Z,69.70
2018-03-19T08:10:11.959Z,69.50
2018-03-19T08:12:40.239Z,71.90
2018-03-19T08:15:07.808Z,71.90
2018-03-19T08:17:35.406Z,72.80
2018-03-19T08:20:02.941Z,71.20
2018-03-19T08:22:30.473Z,72.40
2018-03-19T08:24:58.883Z,71.10
2018-03-19T08:27:27.897Z,71.80
2018-03-19T08:29:55.482Z,71.70
2018-03-19T08:32:23.957Z,71.00
2018-03-19T08:34:51.514Z,71.20
2018-03-19T08:37:19.055Z,73.80
2018-03-19T08:39:47.397Z,70.50
2018-03-19T08:42:14.906Z,71.00
2018-03-19T08:44:43.828Z,70.60
2018-03-19T08:47:11.483Z,70.30
2018-03-19T08:49:38.997Z,69.60
2018-03-19T08:52:06.610Z,70.70
2018-03-19T08:54:34.160Z,72.00
2018-03-19T08:57:02.458Z,70.90
2018-03-19T08:59:30.027Z,70.80
2018-03-19T09:01:57.563Z,71.60
2018-03-19T09:04:25.841Z,70.20
2018-03-19T09:06:54.123Z,71.70
2018-03-19T09:09:22.419Z,70.30
2018-03-19T09:11:50.190Z,70.30
2018-03-19T09:14:17.727Z,68.40
2018-03-19T09:16:46.079Z,70.90
2018-03-19T09:19:13.592Z,70.70
2018-03-19T09:21:41.169Z,68.40
2018-03-19T09:24:08.699Z,70.30
2018-03-19T09:26:36.415Z,70.00
2018-03-19T09:29:03.987Z,69.70
2018-03-19T09:31:31.522Z,70.80
2018-03-19T09:33:59.030Z,70.10
2018-03-19T09:36:26.543Z,68.70
2018-03-19T09:38:54.851Z,69.10
2018-03-19T09:41:22.366Z,69.10
2018-03-19T09:43:49.976Z,68.60
2018-03-19T09:46:17.530Z,70.30
2018-03-19T09:48:45.104Z,70.00
2018-03-19T09:51:18.344Z,69.10
2018-03-19T09:53:45.923Z,69.40
2018-03-19T09:56:14.218Z,70.00
2018-03-19T09:58:42.511Z,66.30
2018-03-19T10:01:10.827Z,68.70
2018-03-19T10:03:38.363Z,68.70
2018-03-19T10:06:06.666Z,69.40
2018-03-19T10:08:34.245Z,69.30
2018-03-19T10:11:01.763Z,68.00
2018-03-19T10:13:30.598Z,69.50
2018-03-19T10:15:58.570Z,69.40
2018-03-19T10:18:26.102Z,67.40
2018-03-19T10:20:54.406Z,65.70
2018-03-19T10:23:21.943Z,65.60
2018-03-19T10:25:50.215Z,67.10
2018-03-19T10:28:18.580Z,65.70
2018-03-19T10:30:46.135Z,65.50
2018-03-19T10:33:13.762Z,68.60
2018-03-19T10:35:41.334Z,69.40
2018-03-19T10:38:08.857Z,68.90
2018-03-19T10:40:37.152Z,67.40
2018-03-19T10:43:05.470Z,68.10
2018-03-19T10:45:32.977Z,68.10
2018-03-19T10:48:01.286Z,67.30
2018-03-19T10:50:29.682Z,66.60
2018-03-19T10:52:57.275Z,66.40
2018-03-19T10:55:24.770Z,67.70
2018-03-19T10:57:52.322Z,67.10
2018-03-19T11:00:19.850Z,67.30
2018-03-19T11:02:53.114Z,67.60
2018-03-19T11:05:27.009Z,67.90
2018-03-19T11:08:01.526Z,66.50
2018-03-19T11:10:29.075Z,67.10
2018-03-19T11:12:56.691Z,65.90
2018-03-19T11:15:25.231Z,66.30
2018-03-19T11:17:52.798Z,66.30
2018-03-19T11:20:21.130Z,65.30
2018-03-19T11:22:48.694Z,65.20
2018-03-19T11:25:16.220Z,65.30
2018-03-19T11:27:44.508Z,64.00
2018-03-19T11:30:13.003Z,67.30
2018-03-19T11:32:41.293Z,64.40
2018-03-19T11:35:08.837Z,64.30
2018-03-19T11:37:37.147Z,63.30
2018-03-19T11:40:04.705Z,63.20
2018-03-19T11:42:32.247Z,63.80
2018-03-19T11:45:00.572Z,63.30
2018-03-19T11:47:28.099Z,63.20
2018-03-19T11:49:56.384Z,65.60
2018-03-19T11:52:24.696Z,65.00
2018-03-19T11:54:52.206Z,65.10
2018-03-19T11:57:21.233Z,63.30
2018-03-19T11:59:49.536Z,65.90
2018-03-19T12:02:17.311Z,65.80
2018-03-19T12:04:44.833Z,62.90
2018-03-19T12:07:13.150Z,64.80
2018-03-19T12:09:40.668Z,64.70
2018-03-19T12:12:08.200Z,63.10
2018-03-19T12:14:35.752Z,65.00
2018-03-19T12:17:03.314Z,63.80
2018-03-19T12:19:30.848Z,63.70
2018-03-19T12:21:59.155Z,64.30
2018-03-19T12:24:26.679Z,64.20
2018-03-19T12:26:55.019Z,63.40
2018-03-19T12:29:22.542Z,63.00
2018-03-19T12:31:50.880Z,64.10
2018-03-19T12:34:18.426Z,64.00
2018-03-19T12:36:46.078Z,61.30
2018-03-19T12:39:13.639Z,64.60
2018-03-19T12:41:41.156Z,61.80
2018-03-19T12:44:08.685Z,61.80
2018-03-19T12:46:36.210Z,63.20
2018-03-19T12:49:04.503Z,64.60
2018-03-19T12:51:32.062Z,64.60
2018-03-19T12:54:00.346Z,63.30
2018-03-19T12:56:28.615Z,63.60
2018-03-19T12:58:56.912Z,64.00
2018-03-19T13:01:24.585Z,63.90
2018-03-19T13:03:52.106Z,63.90
2018-03-19T13:06:21.395Z,64.70
2018-03-19T13:08:49.770Z,64.70
2018-03-19T13:11:19.117Z,59.60
2018-03-19T13:13:47.145Z,62.30
2018-03-19T13:16:14.671Z,64.20
2018-03-19T13:18:43.051Z,64.00
2018-03-19T13:21:11.368Z,65.50
2018-03-19T13:23:39.951Z,65.40
2018-03-19T13:26:08.318Z,61.90
2018-03-19T13:28:38.140Z,62.90
2018-03-19T13:31:05.746Z,62.80
2018-03-19T13:33:35.352Z,61.80
2018-03-19T13:36:03.161Z,63.50
2018-03-19T13:38:31.593Z,62.40
2018-03-19T13:41:01.897Z,62.40
2018-03-19T13:43:32.052Z,63.30
2018-03-19T13:45:59.759Z,61.20
2018-03-19T13:48:28.441Z,64.30
2018-03-19T13:50:56.775Z,65.20
2018-03-19T13:53:25.522Z,65.30
2018-03-19T13:55:53.858Z,65.20
2018-03-19T13:58:21.576Z,65.10
2018-03-19T14:00:49.171Z,63.10
2018-03-19T14:03:16.739Z,64.70
2018-03-19T14:05:44.326Z,63.50
2018-03-19T14:08:11.954Z,62.10
2018-03-19T14:10:39.496Z,64.30
2018-03-19T14:13:07.046Z,62.40
2018-03-19T14:15:34.573Z,62.70
2018-03-19T14:18:02.086Z,64.00
2018-03-19T14:20:29.623Z,64.90
2018-03-19T14:22:57.139Z,62.60
2018-03-19T14:25:24.659Z,66.10
2018-03-19T14:27:52.315Z,63.60
2018-03-19T14:30:19.743Z,66.90
2018-03-19T14:32:47.290Z,65.10
2018-03-19T14:35:14.950Z,65.40
2018-03-19T14:37:43.253Z,62.40
2018-03-19T14:40:10.792Z,62.40
2018-03-19T14:42:39.850Z,66.80
2018-03-19T14:45:07.389Z,66.10
2018-03-19T14:47:34.919Z,63.50
2018-03-19T14:50:03.314Z,63.50
2018-03-19T14:52:30.886Z,63.20
2018-03-19T14:54:59.237Z,63.30
2018-03-19T14:57:26.875Z,63.30
2018-03-19T14:59:54.419Z,62.00
2018-03-19T15:02:22.038Z,63.30
2018-03-19T15:04:50.330Z,66.80
2018-03-19T15:07:17.888Z,66.80
2018-03-19T15:09:46.167Z,60.50
2018-03-19T15:12:14.494Z,65.70
2018-03-19T15:14:42.018Z,65.70
2018-03-19T15:17:09.683Z,66.60
2018-03-19T15:19:37.796Z,67.40
2018-03-19T15:22:05.870Z,66.20
2018-03-19T15:24:34.895Z,68.30
2018-03-19T15:27:03.796Z,65.20
2018-03-19T15:29:31.467Z,65.20
2018-03-19T15:31:59.619Z,65.10
2018-03-19T15:34:27.584Z,65.60
2018-03-19T15:36:55.585Z,66.90
2018-03-19T15:39:24.146Z,69.70
2018-03-19T15:41:53.166Z,65.10
2018-03-19T15:44:22.877Z,70.30
2018-03-19T15:46:50.735Z,70.30
2018-03-19T15:49:18.715Z,67.30
2018-03-19T15:51:46.482Z,66.70
2018-03-19T15:54:14.244Z,67.50
2018-03-19T15:56:42.478Z,68.20
2018-03-19T15:59:10.875Z,68.50
2018-03-19T16:01:39.207Z,72.30
2018-03-19T16:04:07.063Z,72.20
2018-03-19T16:06:35.776Z,69.00
2018-03-19T16:09:05.094Z,68.20
2018-03-19T16:11:33.438Z,67.30
2018-03-19T16:14:01.966Z,63.80
2018-03-19T16:16:30.469Z,67.00
2018-03-19T16:18:58.908Z,68.50
2018-03-19T16:21:29.277Z,68.00
2018-03-19T16:23:57.629Z,65.10
2018-03-19T16:29:05.935Z,65.60
2018-03-19T16:31:33.453Z,67.40
2018-03-19T16:34:00.970Z,68.10
2018-03-19T16:36:28.542Z,68.80
2018-03-19T16:38:56.191Z,66.10
2018-03-19T16:41:23.728Z,65.80
2018-03-19T16:43:52.041Z,69.00
2018-03-19T16:46:19.559Z,68.90
2018-03-19T16:48:47.082Z,67.80
2018-03-19T16:51:14.626Z,69.20
2018-03-19T16:53:42.202Z,66.60
2018-03-19T16:56:09.724Z,67.10
2018-03-19T16:58:37.263Z,66.50
2018-03-19T17:01:04.793Z,67.00
2018-03-19T17:03:32.328Z,68.90
2018-03-19T17:06:00.626Z,69.50
2018-03-19T17:08:28.139Z,69.40
2018-03-19T17:10:55.663Z,70.50
2018-03-19T17:13:23.305Z,68.30
2018-03-19T17:15:51.604Z,67.70
2018-03-19T17:18:19.138Z,67.60
2018-03-19T17:20:47.664Z,68.90
2018-03-19T17:23:15.187Z,68.70
2018-03-19T17:25:44.225Z,69.50
2018-03-19T17:28:11.832Z,69.50
2018-03-19T17:30:40.215Z,70.00
2018-03-19T17:33:08.738Z,70.10
2018-03-19T17:35:37.080Z,69.10
2018-03-19T17:38:04.622Z,69.10
2018-03-19T17:40:34.187Z,68.10
2018-03-19T17:43:02.515Z,71.20
2018-03-19T17:45:30.031Z,71.10
2018-03-19T17:47:58.313Z,68.70
2018-03-19T17:50:25.863Z,68.40
2018-03-19T17:52:53.403Z,69.80
2018-03-19T17:55:20.926Z,70.10
2018-03-19T17:57:48.464Z,69.90
2018-03-19T18:00:16.909Z,70.60
2018-03-19T18:02:44.761Z,70.50
2018-03-19T18:05:12.410Z,71.00
2018-03-19T18:07:40.710Z,71.70
2018-03-19T18:10:08.228Z,71.60
2018-03-19T18:12:36.555Z,70.80
2018-03-19T18:15:04.094Z,70.00
2018-03-19T18:17:32.388Z,69.30
2018-03-19T18:19:59.946Z,69.30
2018-03-19T18:22:28.221Z,70.50
2018-03-19T18:24:56.515Z,70.40
2018-03-19T18:27:24.059Z,70.30
2018-03-19T18:29:51.736Z,71.50
2018-03-19T18:32:20.070Z,70.90
2018-03-19T18:34:47.635Z,70.90
2018-03-19T18:37:15.153Z,70.50
2018-03-19T18:39:43.457Z,72.10
2018-03-19T18:42:11.083Z,72.00
2018-03-19T18:44:39.376Z,73.40
2018-03-19T18:47:07.664Z,72.10
2018-03-19T18:49:36.014Z,72.90
2018-03-19T18:52:04.344Z,71.00
2018-03-19T18:54:31.865Z,71.00
2018-03-19T18:57:00.189Z,74.30
2018-03-19T18:59:29.677Z,74.20
2018-03-19T19:01:57.235Z,71.30
2018-03-19T19:04:25.595Z,72.20
2018-03-19T19:06:53.926Z,71.80
2018-03-19T19:09:21.455Z,72.40
2018-03-19T19:11:50.084Z,72.60
2018-03-19T19:14:17.602Z,73.10
2018-03-19T19:16:45.135Z,72.40
2018-03-19T19:19:13.563Z,70.70
2018-03-19T19:21:45.631Z,71.80
2018-03-19T19:24:13.947Z,70.30
2018-03-19T19:26:41.503Z,70.30
2018-03-19T19:29:09.016Z,72.80
2018-03-19T19:31:36.548Z,71.20
2018-03-19T19:34:04.073Z,72.10
2018-03-19T19:36:32.380Z,70.70
2018-03-19T19:38:59.939Z,70.60
2018-03-19T19:41:27.469Z,70.80
2018-03-19T19:43:55.907Z,72.40
2018-03-19T19:46:25.033Z,71.60
2018-03-19T19:48:52.900Z,72.30
2018-03-19T19:51:21.528Z,72.10
2018-03-19T19:53:49.184Z,70.70
2018-03-19T19:56:16.722Z,70.70
2018-03-19T19:58:44.274Z,71.30
2018-03-19T20:01:11.837Z,71.60
2018-03-19T20:03:39.370Z,71.20
2018-03-19T20:06:06.951Z,72.20
2018-03-19T20:08:34.502Z,71.00
2018-03-19T20:11:02.078Z,70.40
2018-03-19T20:13:30.621Z,72.30
2018-03-19T20:15:58.166Z,71.00
2018-03-19T20:18:25.787Z,71.50
2018-03-19T20:20:53.421Z,71.80
2018-03-19T20:23:21.742Z,73.00
2018-03-19T20:25:49.378Z,72.90
2018-03-19T20:28:17.679Z,72.40
2018-03-19T20:30:45.344Z,72.40
2018-03-19T20:33:12.872Z,70.80
2018-03-19T20:35:40.786Z,72.00
2018-03-19T20:38:08.375Z,71.20
2018-03-19T20:40:35.966Z,71.80
2018-03-19T20:43:03.514Z,72.10
2018-03-19T20:45:31.160Z,70.90
2018-03-19T20:47:58.706Z,72.50
2018-03-19T20:50:26.363Z,73.20
2018-03-19T20:52:54.857Z,72.90
2018-03-19T20:55:22.490Z,72.80
2018-03-19T20:57:50.087Z,72.90
2018-03-19T21:00:17.648Z,72.10
2018-03-19T21:02:45.501Z,72.00
2018-03-19T21:05:13.078Z,71.50
2018-03-19T21:07:40.626Z,72.40
2018-03-19T21:10:08.926Z,72.60
2018-03-19T21:12:37.208Z,71.40
2018-03-19T21:15:05.523Z,71.80
2018-03-19T21:17:33.045Z,71.70
2018-03-19T21:20:01.354Z,72.20
2018-03-19T21:22:28.952Z,72.10
2018-03-19T21:24:56.470Z,72.80
2018-03-19T21:27:24.823Z,73.10
2018-03-19T21:29:53.139Z,72.60
2018-03-19T21:32:20.664Z,72.60
2018-03-19T21:34:48.207Z,72.90
2018-03-19T21:37:15.745Z,73.50
2018-03-19T21:39:43.275Z,74.50
2018-03-19T21:42:11.558Z,74.60
2018-03-19T21:44:39.870Z,74.20
2018-03-19T21:47:07.709Z,74.00
2018-03-19T21:49:36.009Z,73.30
2018-03-19T21:52:03.553Z,73.10
2018-03-19T21:54:31.855Z,73.50
2018-03-19T21:56:59.419Z,73.40
2018-03-19T21:59:26.972Z,73.50
2018-03-19T22:01:55.250Z,72.20
2018-03-19T22:04:23.544Z,74.10
2018-03-19T22:06:51.127Z,74.00
2018-03-19T22:09:18.687Z,73.40
2018-03-19T22:11:46.211Z,73.00
2018-03-19T22:14:13.754Z,72.20
2018-03-19T22:16:41.362Z,71.40
2018-03-19T22:19:09.673Z,71.90
2018-03-19T22:21:37.289Z,71.80
2018-03-19T22:24:05.590Z,72.00
2018-03-19T22:26:33.889Z,70.70
2018-03-19T22:29:01.418Z,70.60
2018-03-19T22:31:28.962Z,73.70
2018-03-19T22:33:56.495Z,73.50
2018-03-19T22:36:24.102Z,72.80
2018-03-19T22:38:51.649Z,72.80
2018-03-19T22:41:19.197Z,71.50
2018-03-19T22:43:46.739Z,72.20
2018-03-19T22:46:14.265Z,73.10
2018-03-19T22:48:41.877Z,72.80
2018-03-19T22:51:11.190Z,72.30
2018-03-19T22:53:38.745Z,71.90
2018-03-19T22:56:06.279Z,71.40
2018-03-19T22:58:34.612Z,72.00
2018-03-19T23:01:03.133Z,72.00
2018-03-19T23:03:30.715Z,71.50
2018-03-19T23:05:59.159Z,71.60
2018-03-19T23:08:26.733Z,71.50
2018-03-19T23:10:54.321Z,71.60
2018-03-19T23:13:21.938Z,71.30
2018-03-19T23:15:49.479Z,74.30
2018-03-19T23:18:17.764Z,72.30
2018-03-19T23:20:45.416Z,72.20
2018-03-19T23:23:12.970Z,72.90
2018-03-19T23:25:41.231Z,73.30
2018-03-19T23:28:09.451Z,73.60
2018-03-19T23:30:37.020Z,73.80
2018-03-19T23:33:04.558Z,73.50
2018-03-19T23:35:32.291Z,73.10
2018-03-19T23:37:59.887Z,71.80
2018-03-19T23:40:27.391Z,73.10
2018-03-19T23:42:54.963Z,71.80
2018-03-19T23:45:22.515Z,72.50
2018-03-19T23:47:50.074Z,71.90
2018-03-19T23:50:19.274Z,73.10
2018-03-19T23:52:46.837Z,73.00
2018-03-19T23:55:14.403Z,73.40
2018-03-19T23:57:41.976Z,71.40
